Time;durP1;ratioP1;P1;durP2;ratioP2;P2;SDS_P1;SDS_P2;PMS_P1;PMS_P2;Temp;Humidity;BMP_temperature;BMP_pressure;BME280_temperature;BME280_humidity;BME280_pressure;Samples;Min_cycle;Max_cycle;Signal;HPM_P1;HPM_P2
2022/11/05 00:09:29;;;;;;;9.80;3.78;;;8.10;99.90;;;;;;5112659;28;20092;-60
2022/11/05 00:17:39;;;;;;;9.40;4.22;;;7.90;99.90;;;;;;5115303;28;20030;-57
2022/11/05 00:20:06;;;;;;;8.00;3.83;;;7.90;99.90;;;;;;5115217;28;20024;-55
2022/11/05 00:25:17;;;;;;;13.25;4.32;;;8.00;99.90;;;;;;5115216;28;20161;-56
2022/11/05 00:27:51;;;;;;;5.40;3.05;;;8.00;99.90;;;;;;5113870;28;20523;-56
2022/11/05 00:30:20;;;;;;;7.68;3.78;;;8.10;99.90;;;;;;5114107;28;20427;-57
2022/11/05 00:32:47;;;;;;;10.60;3.72;;;8.10;99.90;;;;;;5114796;28;20471;-57
2022/11/05 00:35:14;;;;;;;8.68;3.42;;;8.20;99.90;;;;;;5111738;28;20076;-57
2022/11/05 00:37:40;;;;;;;7.30;2.97;;;8.20;99.90;;;;;;5093733;28;20038;-56
2022/11/05 00:40:06;;;;;;;5.07;3.00;;;8.30;99.90;;;;;;5094726;28;20357;-60
2022/11/05 00:45:17;;;;;;;7.82;3.65;;;8.40;99.90;;;;;;5094183;28;20039;-56
2022/11/05 00:50:27;;;;;;;4.95;2.60;;;8.40;99.90;;;;;;5085911;28;20534;-60
2022/11/05 00:52:59;;;;;;;7.47;2.45;;;8.40;99.90;;;;;;5083176;28;20028;-55
2022/11/05 00:55:39;;;;;;;3.92;2.53;;;8.30;99.90;;;;;;5093009;28;20023;-58
2022/11/05 00:58:10;;;;;;;6.07;2.22;;;8.30;99.90;;;;;;5090907;28;20529;-62
2022/11/05 01:00:39;;;;;;;4.03;2.35;;;8.20;99.90;;;;;;5094078;28;20519;-60
2022/11/05 01:03:16;;;;;;;4.75;1.90;;;8.10;99.90;;;;;;5092885;28;20081;-58
2022/11/05 01:05:47;;;;;;;3.58;2.15;;;7.90;99.90;;;;;;5093477;28;20020;-59
2022/11/05 01:08:14;;;;;;;4.82;2.40;;;7.80;99.90;;;;;;5094194;28;20064;-57
2022/11/05 01:10:48;;;;;;;6.53;3.00;;;7.70;99.90;;;;;;5093958;28;20113;-54
2022/11/05 01:13:17;;;;;;;5.53;2.90;;;7.60;99.90;;;;;;5093194;28;20027;-58
2022/11/05 01:15:44;;;;;;;4.85;2.67;;;7.50;99.90;;;;;;5094092;28;20550;-56
2022/11/05 01:18:09;;;;;;;5.03;1.90;;;7.40;99.90;;;;;;5093589;28;20028;-56
2022/11/05 01:20:35;;;;;;;5.10;1.90;;;7.40;99.90;;;;;;5093074;28;20035;-56
2022/11/05 01:23:00;;;;;;;3.25;1.80;;;7.30;99.90;;;;;;5093400;28;20173;-56
2022/11/05 01:25:26;;;;;;;5.28;1.70;;;7.30;99.90;;;;;;5093044;28;20077;-57
2022/11/05 01:27:52;;;;;;;2.90;1.48;;;7.20;99.90;;;;;;5093596;28;20373;-56
2022/11/05 01:30:18;;;;;;;2.13;1.52;;;7.20;99.90;;;;;;5093301;28;20024;-57
2022/11/05 01:32:43;;;;;;;2.65;1.50;;;7.10;99.90;;;;;;5093208;28;20081;-56
2022/11/05 01:35:12;;;;;;;3.55;1.80;;;7.10;99.90;;;;;;5093285;28;20028;-55
2022/11/05 01:37:38;;;;;;;5.05;1.50;;;7.00;99.90;;;;;;5093041;28;20052;-60
2022/11/05 01:40:05;;;;;;;2.38;1.65;;;6.90;99.90;;;;;;5091593;28;20407;-57
2022/11/05 01:42:31;;;;;;;2.35;1.30;;;6.90;99.90;;;;;;5092731;28;20028;-57
2022/11/05 01:45:01;;;;;;;4.10;1.55;;;6.90;99.90;;;;;;5093567;28;20479;-58
2022/11/05 01:47:31;;;;;;;3.05;1.55;;;6.80;99.90;;;;;;5091933;28;20024;-53
2022/11/05 01:49:59;;;;;;;2.58;1.60;;;6.80;99.90;;;;;;5093401;28;20016;-57
2022/11/05 01:52:27;;;;;;;4.28;1.67;;;6.80;99.90;;;;;;5093245;28;20073;-61
2022/11/05 01:54:53;;;;;;;1.83;1.38;;;6.80;99.90;;;;;;5092448;28;20024;-56
2022/11/05 01:57:19;;;;;;;3.22;1.65;;;6.70;99.90;;;;;;5093481;28;20036;-60
2022/11/05 01:59:49;;;;;;;2.67;1.23;;;6.70;99.90;;;;;;5091893;28;20377;-57
2022/11/05 02:02:16;;;;;;;4.03;1.45;;;6.70;99.90;;;;;;5092332;28;20386;-58
2022/11/05 02:04:52;;;;;;;2.50;1.05;;;6.70;99.90;;;;;;5093317;28;20028;-56
2022/11/05 02:07:19;;;;;;;4.32;1.30;;;6.70;99.90;;;;;;5092941;28;20072;-54
2022/11/05 02:10:16;;;;;;;3.20;1.40;;;6.80;99.90;;;;;;5092443;28;20035;-57
2022/11/05 02:12:46;;;;;;;3.83;1.30;;;6.80;99.90;;;;;;5076848;28;20036;-55
2022/11/05 02:15:14;;;;;;;2.22;1.20;;;6.80;99.90;;;;;;5092433;28;20047;-57
2022/11/05 02:18:10;;;;;;;3.03;1.00;;;6.80;99.90;;;;;;5092814;28;20030;-58
2022/11/05 02:20:48;;;;;;;4.13;1.33;;;6.70;99.90;;;;;;5091197;28;20069;-55
2022/11/05 02:23:44;;;;;;;1.50;1.13;;;6.70;99.90;;;;;;5091805;28;20143;-58
2022/11/05 02:26:25;;;;;;;0.80;0.80;;;6.70;99.90;;;;;;5092948;28;20070;-55
2022/11/05 02:28:54;;;;;;;1.55;1.00;;;6.60;99.90;;;;;;5092174;28;20198;-58
2022/11/05 02:31:28;;;;;;;1.02;0.93;;;6.60;99.90;;;;;;5092242;28;20024;-60
2022/11/05 02:34:02;;;;;;;1.80;0.90;;;6.60;99.90;;;;;;5092586;28;20024;-52
2022/11/05 02:36:42;;;;;;;1.70;0.90;;;6.50;99.90;;;;;;5091771;28;20077;-57
2022/11/05 02:39:30;;;;;;;2.03;1.00;;;6.50;99.90;;;;;;5092503;28;20021;-55
2022/11/05 02:42:15;;;;;;;4.13;1.05;;;6.40;99.90;;;;;;5092296;28;20043;-55
2022/11/05 02:44:59;;;;;;;1.65;0.90;;;6.40;99.90;;;;;;5091921;28;20020;-54
2022/11/05 02:47:32;;;;;;;1.80;0.90;;;6.40;99.90;;;;;;5092560;28;20518;-57
2022/11/05 02:50:15;;;;;;;1.90;0.90;;;6.30;99.90;;;;;;5091701;28;20025;-59
2022/11/05 02:53:10;;;;;;;3.60;1.38;;;6.30;99.90;;;;;;5092238;28;20024;-58
2022/11/05 02:55:40;;;;;;;1.98;1.15;;;6.30;99.90;;;;;;5092347;28;20039;-58
2022/11/05 02:58:06;;;;;;;3.97;1.30;;;6.30;99.90;;;;;;5091702;28;20079;-56
2022/11/05 03:00:50;;;;;;;3.65;1.50;;;6.30;99.90;;;;;;5092028;28;20492;-59
2022/11/05 03:03:47;;;;;;;3.90;1.70;;;6.30;99.90;;;;;;5092003;28;20032;-58
2022/11/05 03:06:42;;;;;;;2.50;1.50;;;6.30;99.90;;;;;;5090888;28;20046;-59
2022/11/05 03:09:26;;;;;;;2.70;1.65;;;6.30;99.90;;;;;;5085998;28;20047;-58
2022/11/05 03:12:00;;;;;;;1.80;1.30;;;6.30;99.90;;;;;;5091648;28;20098;-61
2022/11/05 03:15:00;;;;;;;3.20;1.40;;;6.30;99.90;;;;;;5091777;28;20016;-54
2022/11/05 03:17:39;;;;;;;2.42;1.30;;;6.30;99.90;;;;;;5092009;28;20072;-56
2022/11/05 03:20:26;;;;;;;3.80;1.77;;;6.30;99.90;;;;;;5091547;28;20388;-55
2022/11/05 03:23:25;;;;;;;6.57;1.40;;;6.30;99.90;;;;;;5091534;28;20544;-57
2022/11/05 03:26:00;;;;;;;6.68;1.73;;;6.30;99.90;;;;;;5089944;28;20048;-54
2022/11/05 03:28:30;;;;;;;3.85;1.85;;;6.40;99.90;;;;;;5092071;28;20043;-57
2022/11/05 03:30:57;;;;;;;5.38;2.10;;;6.40;99.90;;;;;;5090849;28;20017;-53
2022/11/05 03:33:30;;;;;;;3.95;2.13;;;6.50;99.90;;;;;;5091176;28;20109;-55
2022/11/05 03:36:00;;;;;;;5.75;2.60;;;6.50;99.90;;;;;;5091986;28;20024;-57
2022/11/05 03:38:30;;;;;;;4.65;2.72;;;6.60;99.90;;;;;;5091854;28;20020;-57
2022/11/05 03:41:02;;;;;;;5.57;2.58;;;6.60;99.90;;;;;;5091060;28;20027;-58
2022/11/05 03:43:29;;;;;;;;;;;6.60;99.90;;;;;;5092281;28;20032;-58
2022/11/05 03:46:07;;;;;;;6.65;3.00;;;6.60;99.90;;;;;;5095883;28;19986;-58
2022/11/05 03:48:40;;;;;;;4.97;2.78;;;6.50;99.90;;;;;;5095933;28;20024;-56
2022/11/05 03:51:29;;;;;;;7.68;2.97;;;6.50;99.90;;;;;;5095614;28;20015;-59
2022/11/05 03:53:58;;;;;;;8.85;3.78;;;6.50;99.90;;;;;;5094965;28;20020;-58
2022/11/05 03:56:57;;;;;;;5.38;3.30;;;6.50;99.90;;;;;;5095626;28;20064;-53
2022/11/05 03:59:24;;;;;;;5.72;3.03;;;6.50;99.90;;;;;;5095741;28;20027;-57
2022/11/05 04:01:49;;;;;;;6.47;3.75;;;6.40;99.90;;;;;;5094663;28;20057;-53
2022/11/05 04:04:15;;;;;;;6.30;3.30;;;6.40;99.90;;;;;;5095485;28;20024;-55
2022/11/05 04:14:54;;;;;;;7.20;3.50;;;6.20;99.90;;;;;;5095092;28;20086;-56
2022/11/05 04:17:19;;;;;;;6.93;3.17;;;6.20;99.90;;;;;;5095031;28;20027;-53
2022/11/05 04:25:24;;;;;;;6.68;3.95;;;6.10;99.90;;;;;;5086264;28;20479;-52
2022/11/05 04:27:50;;;;;;;6.40;3.42;;;6.10;99.90;;;;;;5094946;28;20024;-56
2022/11/05 04:30:18;;;;;;;7.90;3.60;;;6.10;99.90;;;;;;5094272;28;20028;-53
2022/11/05 04:33:07;;;;;;;6.00;3.17;;;6.10;99.90;;;;;;5094789;28;21106;-54
2022/11/05 04:35:38;;;;;;;6.60;2.92;;;6.00;99.90;;;;;;5094261;28;20020;-55
2022/11/05 04:38:06;;;;;;;4.85;2.72;;;6.00;99.90;;;;;;5094867;28;20016;-56
2022/11/05 04:40:32;;;;;;;7.43;3.55;;;6.00;99.90;;;;;;5093540;28;20442;-53
2022/11/05 04:42:58;;;;;;;7.75;3.35;;;6.00;99.90;;;;;;5093975;28;20119;-55
2022/11/05 04:45:26;;;;;;;6.82;3.28;;;5.90;99.90;;;;;;5094701;28;20060;-57
2022/11/05 04:47:52;;;;;;;7.95;3.38;;;5.90;99.90;;;;;;5094701;28;20443;-56
2022/11/05 04:50:18;;;;;;;5.10;3.40;;;5.90;99.90;;;;;;5093795;28;20024;-55
2022/11/05 04:52:44;;;;;;;9.02;3.83;;;5.90;99.90;;;;;;5094616;28;20021;-63
2022/11/05 04:55:10;;;;;;;5.72;3.55;;;5.80;99.90;;;;;;5093903;28;20127;-58
2022/11/05 04:57:36;;;;;;;6.35;4.05;;;5.90;99.90;;;;;;5093987;28;20024;-55
2022/11/05 05:00:02;;;;;;;7.07;3.33;;;5.90;99.90;;;;;;5094452;28;20016;-63
2022/11/05 05:02:28;;;;;;;5.38;3.53;;;5.90;99.90;;;;;;5094617;28;20092;-61
2022/11/05 05:04:53;;;;;;;5.35;3.28;;;5.90;99.90;;;;;;5094187;28;20456;-58
2022/11/05 05:07:19;;;;;;;5.03;3.05;;;5.90;99.90;;;;;;5094144;28;20028;-56
2022/11/05 05:09:45;;;;;;;7.18;3.47;;;5.80;99.90;;;;;;5094498;28;20024;-60
2022/11/05 05:12:10;;;;;;;4.30;2.63;;;5.90;99.90;;;;;;5093366;28;20129;-59
2022/11/05 05:14:36;;;;;;;5.85;3.20;;;5.80;99.90;;;;;;5094501;28;20365;-57
2022/11/05 05:17:01;;;;;;;4.70;3.35;;;5.80;99.90;;;;;;5094263;28;20107;-57
2022/11/05 05:19:27;;;;;;;6.40;3.45;;;5.80;99.90;;;;;;5093579;28;20027;-55
2022/11/05 05:21:52;;;;;;;8.20;3.97;;;5.80;99.90;;;;;;5093753;28;20123;-55
2022/11/05 05:24:19;;;;;;;8.82;4.13;;;5.80;99.90;;;;;;5093984;28;20024;-55
2022/11/05 05:26:49;;;;;;;5.05;3.05;;;5.80;99.90;;;;;;5093257;28;20026;-57
2022/11/05 05:29:16;;;;;;;5.55;3.33;;;5.80;99.90;;;;;;5092686;28;20028;-54
2022/11/05 05:31:41;;;;;;;7.47;3.55;;;5.80;99.90;;;;;;5093240;28;20023;-56
2022/11/05 05:34:10;;;;;;;9.65;3.97;;;5.80;99.90;;;;;;5093461;28;20024;-57
2022/11/05 05:36:35;;;;;;;7.07;3.97;;;5.90;99.90;;;;;;5093644;28;20024;-55
2022/11/05 05:39:05;;;;;;;7.15;4.55;;;5.90;99.90;;;;;;5093125;28;20502;-56
2022/11/05 05:41:30;;;;;;;8.50;4.38;;;5.90;99.90;;;;;;5093453;28;20051;-52
2022/11/05 05:43:56;;;;;;;7.82;4.57;;;5.90;99.90;;;;;;5093353;28;20061;-55
2022/11/05 05:46:21;;;;;;;8.70;4.25;;;5.90;99.90;;;;;;5092764;28;20459;-55
2022/11/05 05:48:49;;;;;;;10.95;4.93;;;5.90;99.90;;;;;;5093252;28;20020;-57
2022/11/05 05:51:15;;;;;;;8.93;4.38;;;5.90;99.90;;;;;;5092267;28;20031;-57
2022/11/05 05:53:40;;;;;;;9.10;5.15;;;5.90;99.90;;;;;;5092483;28;20008;-55
2022/11/05 05:56:06;;;;;;;9.02;5.20;;;5.90;99.90;;;;;;5093389;28;20035;-57
2022/11/05 05:58:34;;;;;;;8.40;4.85;;;6.00;99.90;;;;;;5092988;28;20197;-57
2022/11/05 06:01:06;;;;;;;8.30;5.28;;;6.00;99.90;;;;;;5092596;28;20463;-56
2022/11/05 06:03:33;;;;;;;8.77;5.05;;;5.90;99.90;;;;;;5093173;28;20384;-54
2022/11/05 06:06:07;;;;;;;8.88;5.60;;;6.00;99.90;;;;;;5092817;28;20023;-56
2022/11/05 06:08:34;;;;;;;10.13;6.07;;;6.00;99.90;;;;;;5092090;28;20032;-54
2022/11/05 06:11:00;;;;;;;9.68;5.72;;;6.00;99.90;;;;;;5092990;28;20024;-55
2022/11/05 06:13:27;;;;;;;11.30;5.88;;;6.00;99.90;;;;;;5090906;28;20525;-56
2022/11/05 06:15:52;;;;;;;8.18;5.03;;;5.90;99.90;;;;;;5092345;28;20484;-55
2022/11/05 06:18:18;;;;;;;7.72;5.80;;;5.90;99.90;;;;;;5092835;28;20066;-59
2022/11/05 06:20:44;;;;;;;8.65;4.95;;;5.90;99.90;;;;;;5092128;28;20016;-54
2022/11/05 06:23:10;;;;;;;10.82;5.88;;;5.90;99.90;;;;;;5092337;28;20063;-57
2022/11/05 06:25:35;;;;;;;10.80;6.03;;;5.90;99.90;;;;;;5092632;28;20594;-52
2022/11/05 06:28:01;;;;;;;9.73;6.35;;;5.80;99.90;;;;;;5091932;28;20020;-56
2022/11/05 06:30:26;;;;;;;15.55;6.30;;;5.80;99.90;;;;;;5091070;28;20034;-53
2022/11/05 06:32:52;;;;;;;10.77;5.68;;;5.80;99.90;;;;;;5092495;28;20145;-58
2022/11/05 06:35:17;;;;;;;8.85;5.35;;;5.80;99.90;;;;;;5091936;28;20384;-56
2022/11/05 06:37:43;;;;;;;11.60;6.05;;;5.70;99.90;;;;;;5092264;28;20101;-58
2022/11/05 06:40:09;;;;;;;8.10;5.80;;;5.70;99.90;;;;;;5092302;28;20586;-56
2022/11/05 06:42:35;;;;;;;9.18;6.13;;;5.70;99.90;;;;;;5091523;28;20021;-57
2022/11/05 06:45:00;;;;;;;9.43;5.90;;;5.70;99.90;;;;;;5092084;28;20035;-55
2022/11/05 06:47:26;;;;;;;8.02;5.22;;;5.60;99.90;;;;;;5092083;28;20480;-59
2022/11/05 06:49:52;;;;;;;9.82;6.15;;;5.60;99.90;;;;;;5091343;28;20067;-57
2022/11/05 06:52:18;;;;;;;8.80;5.75;;;5.60;99.90;;;;;;5091826;28;20028;-60
2022/11/05 06:54:43;;;;;;;12.23;6.07;;;5.50;99.90;;;;;;5092055;28;20048;-59
2022/11/05 06:57:10;;;;;;;9.98;6.00;;;5.60;99.90;;;;;;5091250;28;20027;-64
2022/11/05 06:59:37;;;;;;;8.85;5.95;;;5.50;99.90;;;;;;5091990;28;20028;-52
2022/11/05 07:02:03;;;;;;;9.32;5.50;;;5.50;99.90;;;;;;5091684;28;20461;-60
2022/11/05 07:04:29;;;;;;;11.05;6.40;;;5.50;99.90;;;;;;5091366;28;20476;-57
2022/11/05 07:06:54;;;;;;;11.65;6.57;;;5.50;99.90;;;;;;5083647;28;20031;-57
2022/11/05 07:09:20;;;;;;;11.50;7.35;;;5.50;99.90;;;;;;5071881;28;20472;-56
2022/11/05 07:11:46;;;;;;;11.70;6.78;;;5.50;99.90;;;;;;5071108;28;20028;-57
2022/11/05 07:14:12;;;;;;;11.25;6.57;;;5.50;99.90;;;;;;5071065;28;20207;-59
2022/11/05 07:16:38;;;;;;;11.32;7.18;;;5.50;99.90;;;;;;5072205;28;20024;-58
2022/11/05 07:19:03;;;;;;;10.20;5.97;;;5.60;99.90;;;;;;5071003;28;20035;-55
2022/11/05 07:21:29;;;;;;;11.60;6.72;;;5.60;99.90;;;;;;5071708;28;20017;-56
2022/11/05 07:23:54;;;;;;;12.93;6.75;;;5.60;99.90;;;;;;5071480;28;20052;-58
2022/11/05 07:26:20;;;;;;;13.80;7.72;;;5.60;99.90;;;;;;5071264;28;20025;-61
2022/11/05 07:28:46;;;;;;;10.98;6.30;;;5.60;99.90;;;;;;5071600;28;20107;-62
2022/11/05 07:31:11;;;;;;;9.85;6.63;;;5.60;99.90;;;;;;5071070;28;20490;-55
2022/11/05 07:33:37;;;;;;;11.93;7.05;;;5.60;99.90;;;;;;5071611;28;20495;-55
2022/11/05 07:36:02;;;;;;;12.40;7.20;;;5.70;99.90;;;;;;5071675;28;20032;-56
2022/11/05 07:38:28;;;;;;;12.32;8.13;;;5.80;99.90;;;;;;5071064;28;20027;-54
2022/11/05 07:40:54;;;;;;;11.73;7.35;;;5.80;99.90;;;;;;5103816;28;20020;-57
2022/11/05 07:43:19;;;;;;;10.00;6.97;;;5.80;99.90;;;;;;5071198;28;20476;-56
2022/11/05 07:45:48;;;;;;;13.95;8.68;;;5.90;99.90;;;;;;5070477;28;20028;-50
2022/11/05 07:48:13;;;;;;;11.65;7.88;;;5.90;99.90;;;;;;5071264;28;20489;-54
2022/11/05 07:50:39;;;;;;;12.75;7.15;;;5.90;99.90;;;;;;5083432;28;20020;-52
2022/11/05 07:53:08;;;;;;;11.75;6.85;;;6.00;99.90;;;;;;5090335;28;20031;-53
2022/11/05 07:55:34;;;;;;;11.93;7.75;;;6.00;99.90;;;;;;5087281;28;20635;-59
2022/11/05 07:58:00;;;;;;;10.18;6.72;;;6.00;99.90;;;;;;5069875;28;20028;-55
2022/11/05 08:00:26;;;;;;;14.18;7.60;;;6.00;99.90;;;;;;5070600;28;20040;-56
2022/11/05 08:03:04;;;;;;;13.05;8.43;;;6.10;99.90;;;;;;5070287;28;20083;-56
2022/11/05 08:05:31;;;;;;;15.30;8.10;;;6.10;99.90;;;;;;5070661;28;20033;-56
2022/11/05 08:07:57;;;;;;;12.25;7.93;;;6.20;99.90;;;;;;5079796;28;20020;-58
2022/11/05 08:10:23;;;;;;;11.98;7.88;;;6.20;99.90;;;;;;5091116;28;20161;-58
2022/11/05 08:12:51;;;;;;;14.48;8.52;;;6.30;99.90;;;;;;5091499;28;20035;-58
2022/11/05 08:15:17;;;;;;;11.75;7.40;;;6.30;99.90;;;;;;5090370;28;20031;-58
2022/11/05 08:17:43;;;;;;;15.80;8.68;;;6.30;99.90;;;;;;5090968;28;20368;-54
2022/11/05 08:20:09;;;;;;;13.45;7.78;;;6.40;99.90;;;;;;5091334;28;20032;-56
2022/11/05 08:22:35;;;;;;;12.90;8.27;;;6.40;99.90;;;;;;5090053;28;20032;-56
2022/11/05 08:25:00;;;;;;;14.48;8.60;;;6.40;99.90;;;;;;5091164;28;20028;-57
2022/11/05 08:27:26;;;;;;;13.73;7.85;;;6.50;99.90;;;;;;5090356;28;20023;-53
2022/11/05 08:29:52;;;;;;;13.48;8.27;;;6.60;99.90;;;;;;5091618;28;20042;-56
2022/11/05 08:32:17;;;;;;;13.18;7.72;;;6.60;99.90;;;;;;5094594;28;20062;-53
2022/11/05 08:34:43;;;;;;;13.15;7.53;;;6.70;99.90;;;;;;5094211;28;20032;-57
2022/11/05 08:37:08;;;;;;;12.80;7.68;;;6.80;99.90;;;;;;5094499;28;20099;-56
2022/11/05 08:39:34;;;;;;;14.07;7.95;;;6.80;99.90;;;;;;5094650;28;20101;-57
2022/11/05 08:41:59;;;;;;;13.60;8.45;;;6.90;99.90;;;;;;5094035;28;20023;-56
2022/11/05 08:44:25;;;;;;;15.45;9.55;;;6.90;99.90;;;;;;5094451;28;20358;-63
2022/11/05 08:46:51;;;;;;;18.23;9.20;;;7.00;99.90;;;;;;5093696;28;20114;-68
2022/11/05 08:49:17;;;;;;;15.88;8.48;;;7.10;99.90;;;;;;5093614;28;20099;-53
2022/11/05 08:51:43;;;;;;;15.68;9.13;;;7.10;99.90;;;;;;5094411;28;20017;-57
2022/11/05 08:54:09;;;;;;;13.82;8.60;;;7.20;99.90;;;;;;5094079;28;20032;-55
2022/11/05 08:56:35;;;;;;;15.25;8.45;;;7.20;99.90;;;;;;5092346;28;20025;-53
2022/11/05 08:59:00;;;;;;;13.85;8.60;;;7.20;99.90;;;;;;5092859;28;20103;-52
2022/11/05 09:01:26;;;;;;;13.20;8.32;;;7.30;99.90;;;;;;5092693;28;20514;-58
2022/11/05 09:03:52;;;;;;;12.48;7.97;;;7.40;99.90;;;;;;5093283;28;20020;-60
2022/11/05 09:06:21;;;;;;;13.15;8.10;;;7.40;99.90;;;;;;5093671;28;20055;-58
2022/11/05 09:08:46;;;;;;;14.75;9.30;;;7.50;99.90;;;;;;5093950;28;20024;-56
2022/11/05 09:11:12;;;;;;;14.70;9.20;;;7.60;99.90;;;;;;5093260;28;20372;-56
2022/11/05 09:13:37;;;;;;;15.68;8.90;;;7.70;99.90;;;;;;5093786;28;20031;-58
2022/11/05 09:16:03;;;;;;;17.13;9.82;;;7.70;99.90;;;;;;5093822;28;20024;-53
2022/11/05 09:18:29;;;;;;;17.38;9.98;;;7.80;99.90;;;;;;5092675;28;20055;-61
2022/11/05 09:20:54;;;;;;;13.05;9.10;;;7.80;99.90;;;;;;5093823;28;20107;-56
2022/11/05 09:23:20;;;;;;;15.80;8.82;;;7.90;99.90;;;;;;5092962;28;20048;-53
2022/11/05 09:25:46;;;;;;;15.05;8.77;;;7.90;99.90;;;;;;5092995;28;20107;-58
2022/11/05 09:28:19;;;;;;;13.52;9.02;;;7.90;99.90;;;;;;5093760;28;20417;-58
2022/11/05 09:30:47;;;;;;;15.02;8.73;;;8.00;99.90;;;;;;5092843;28;20472;-55
2022/11/05 09:33:13;;;;;;;13.57;7.97;;;8.00;99.90;;;;;;5093265;28;20099;-53
2022/11/05 09:35:42;;;;;;;13.02;8.65;;;8.10;99.90;;;;;;5093364;28;20103;-53
2022/11/05 09:38:08;;;;;;;14.57;8.27;;;8.10;99.90;;;;;;5092664;28;20134;-55
2022/11/05 09:40:59;;;;;;;14.60;8.50;;;8.20;99.90;;;;;;5093217;28;20036;-55
2022/11/05 09:43:43;;;;;;;15.18;8.40;;;8.30;99.90;;;;;;5073943;28;20044;-65
2022/11/05 09:46:17;;;;;;;12.63;8.07;;;8.40;99.90;;;;;;5087146;28;20028;-50
2022/11/05 09:48:47;;;;;;;16.63;8.95;;;8.40;99.90;;;;;;5091467;28;20023;-53
2022/11/05 09:51:15;;;;;;;13.50;7.13;;;8.40;99.90;;;;;;5073929;28;20073;-59
2022/11/05 09:53:42;;;;;;;12.32;8.75;;;8.50;99.90;;;;;;5092489;28;20024;-54
2022/11/05 09:56:19;;;;;;;14.98;9.05;;;8.50;99.90;;;;;;5080884;28;20116;-56
2022/11/05 09:58:51;;;;;;;17.00;8.95;;;8.60;99.90;;;;;;5082628;28;20036;-55
2022/11/05 10:01:23;;;;;;;13.02;9.25;;;8.60;99.90;;;;;;5091826;28;20107;-56
2022/11/05 10:03:54;;;;;;;14.52;8.00;;;8.70;99.90;;;;;;5091857;28;20070;-54
2022/11/05 10:06:23;;;;;;;13.53;7.60;;;8.80;99.90;;;;;;5089341;28;20112;-55
2022/11/05 10:09:11;;;;;;;16.48;7.97;;;8.90;99.90;;;;;;5092014;28;20289;-55
2022/11/05 10:11:43;;;;;;;15.43;7.57;;;8.90;99.90;;;;;;5090243;28;20460;-55
2022/11/05 10:14:18;;;;;;;11.43;6.57;;;9.00;99.90;;;;;;5086322;28;20016;-59
2022/11/05 10:16:51;;;;;;;10.68;6.22;;;9.10;99.90;;;;;;5082373;28;20016;-57
2022/11/05 10:19:23;;;;;;;14.68;7.75;;;9.10;99.90;;;;;;5092744;28;20032;-68
2022/11/05 10:22:10;;;;;;;11.55;6.85;;;9.20;99.90;;;;;;5089872;28;20387;-59
2022/11/05 10:24:38;;;;;;;13.88;6.30;;;9.30;99.90;;;;;;5092149;28;20035;-67
2022/11/05 10:27:04;;;;;;;9.32;5.90;;;9.30;99.90;;;;;;5072436;28;20032;-58
2022/11/05 10:29:33;;;;;;;11.63;5.93;;;9.40;99.90;;;;;;5074105;28;20032;-65
2022/11/05 10:32:04;;;;;;;10.75;6.63;;;9.50;99.90;;;;;;5070196;28;20017;-66
2022/11/05 10:34:34;;;;;;;9.77;6.05;;;9.60;99.90;;;;;;5071529;28;20060;-66
2022/11/05 10:37:00;;;;;;;9.80;6.25;;;9.70;99.90;;;;;;5075710;28;20070;-60
2022/11/05 10:39:28;;;;;;;11.30;6.32;;;9.80;99.90;;;;;;5071792;28;20033;-59
2022/11/05 10:42:33;;;;;;;10.50;6.07;;;9.90;99.90;;;;;;5071068;28;20113;-56
2022/11/05 10:45:17;;;;;;;10.57;5.95;;;10.10;99.90;;;;;;5089478;28;20028;-61
2022/11/05 10:48:00;;;;;;;8.90;5.47;;;10.20;99.90;;;;;;5071775;28;20024;-56
2022/11/05 10:50:28;;;;;;;8.23;5.13;;;10.40;99.90;;;;;;5072016;28;20413;-63
2022/11/05 10:53:12;;;;;;;11.48;5.88;;;10.50;99.90;;;;;;5091469;28;20752;-60
2022/11/05 10:55:45;;;;;;;9.25;5.78;;;10.70;99.90;;;;;;5090083;28;20039;-61
2022/11/05 10:58:16;;;;;;;13.45;6.82;;;10.80;99.90;;;;;;5077581;28;20480;-60
2022/11/05 11:01:01;;;;;;;10.15;5.82;;;10.90;99.90;;;;;;5079291;28;20027;-57
2022/11/05 11:03:34;;;;;;;8.50;5.88;;;11.00;99.90;;;;;;5075199;28;20037;-59
2022/11/05 11:06:03;;;;;;;11.15;5.35;;;11.00;99.90;;;;;;5073931;28;20480;-60
2022/11/05 11:08:32;;;;;;;7.97;5.53;;;11.10;99.90;;;;;;5084584;28;20377;-59
2022/11/05 11:11:01;;;;;;;8.52;5.40;;;11.10;99.90;;;;;;5070740;28;20063;-60
2022/11/05 11:13:46;;;;;;;11.27;6.97;;;11.20;99.90;;;;;;5072150;28;20094;-63
2022/11/05 11:16:15;;;;;;;11.65;6.40;;;11.20;99.90;;;;;;5076119;28;20084;-58
2022/11/05 11:18:42;;;;;;;12.13;6.35;;;11.30;99.90;;;;;;5082182;28;20090;-59
2022/11/05 11:21:18;;;;;;;11.07;5.75;;;11.30;99.90;;;;;;5075758;28;20501;-58
2022/11/05 11:24:01;;;;;;;9.38;6.22;;;11.40;99.90;;;;;;5090285;28;20059;-53
2022/11/05 11:26:38;;;;;;;8.68;5.60;;;11.40;99.90;;;;;;5076387;28;20024;-61
2022/11/05 11:29:04;;;;;;;7.80;5.35;;;11.40;99.90;;;;;;5085844;28;20054;-60
2022/11/05 11:31:32;;;;;;;10.85;5.68;;;11.40;99.90;;;;;;5081230;28;20428;-57
2022/11/05 11:34:13;;;;;;;10.68;6.00;;;11.50;99.90;;;;;;5072901;28;20063;-57
2022/11/05 11:36:44;;;;;;;9.70;5.18;;;11.50;99.90;;;;;;5070887;28;20091;-58
2022/11/05 11:39:16;;;;;;;9.90;4.88;;;11.60;99.90;;;;;;5070486;28;20496;-59
2022/11/05 11:41:44;;;;;;;9.98;5.63;;;11.60;99.80;;;;;;5086690;28;20476;-63
2022/11/05 11:44:22;;;;;;;10.07;5.70;;;11.60;99.40;;;;;;5091675;28;20032;-64
2022/11/05 11:46:52;;;;;;;9.95;4.97;;;11.70;98.60;;;;;;5088568;28;20364;-57
2022/11/05 11:49:43;;;;;;;8.32;4.90;;;11.70;98.60;;;;;;5089057;28;20474;-55
2022/11/05 11:52:17;;;;;;;10.63;4.82;;;11.70;98.40;;;;;;5075988;28;21117;-58
2022/11/05 11:54:43;;;;;;;10.27;5.32;;;11.70;98.10;;;;;;5090952;28;20382;-56
2022/11/05 11:57:24;;;;;;;10.68;4.90;;;11.80;98.20;;;;;;5091091;28;20102;-56
2022/11/05 11:59:50;;;;;;;9.57;4.47;;;11.80;97.90;;;;;;5070182;28;20110;-56
2022/11/05 12:02:41;;;;;;;7.20;4.35;;;11.80;97.50;;;;;;5088063;28;20376;-54
2022/11/05 12:05:15;;;;;;;7.37;4.03;;;11.80;97.20;;;;;;5091981;28;20059;-57
2022/11/05 12:07:51;;;;;;;6.63;3.85;;;11.80;97.10;;;;;;5079183;28;20119;-59
2022/11/05 12:10:30;;;;;;;7.50;3.53;;;11.90;97.50;;;;;;5075385;28;20021;-58
2022/11/05 12:13:19;;;;;;;7.68;4.38;;;11.90;97.30;;;;;;5075799;28;20071;-57
2022/11/05 12:16:06;;;;;;;9.70;4.03;;;11.90;96.80;;;;;;5053303;28;20794;-58
2022/11/05 12:18:48;;;;;;;7.72;4.07;;;11.90;96.90;;;;;;5074204;28;20115;-60
2022/11/05 12:21:19;;;;;;;7.43;4.05;;;11.90;96.80;;;;;;5079744;28;20110;-58
2022/11/05 12:23:51;;;;;;;10.07;4.53;;;11.90;96.70;;;;;;5094104;28;20051;-57
2022/11/05 12:26:21;;;;;;;;;;;11.90;96.30;;;;;;5093875;28;20111;-57
2022/11/05 12:29:28;;;;;;;9.00;4.50;;;11.90;96.20;;;;;;5092787;28;19903;-58
2022/11/05 12:32:26;;;;;;;6.38;4.53;;;11.90;96.20;;;;;;5059889;28;20809;-59
2022/11/05 12:35:23;;;;;;;6.70;4.15;;;11.80;96.20;;;;;;5074241;28;20389;-60
2022/11/05 12:38:27;;;;;;;7.05;4.00;;;11.90;96.20;;;;;;5089202;28;20076;-60
2022/11/05 12:41:16;;;;;;;6.75;3.60;;;11.80;96.10;;;;;;5062431;28;20036;-57
2022/11/05 12:44:02;;;;;;;7.00;4.15;;;11.90;96.10;;;;;;5073663;28;20036;-56
2022/11/05 12:46:53;;;;;;;7.68;4.22;;;11.90;96.00;;;;;;5073373;28;20385;-58
2022/11/05 12:49:43;;;;;;;9.75;4.88;;;11.90;96.00;;;;;;5074031;28;20488;-58
2022/11/05 12:52:20;;;;;;;9.30;5.25;;;11.90;95.50;;;;;;5085816;28;20031;-56
2022/11/05 12:54:51;;;;;;;6.40;4.03;;;11.90;95.80;;;;;;5092189;28;20515;-59
2022/11/05 12:57:18;;;;;;;;;;;11.90;95.90;;;;;;5094352;28;20036;-56
2022/11/05 13:00:02;;;;;;;8.50;4.25;;;12.00;95.80;;;;;;5093389;28;19904;-58
2022/11/05 13:02:45;;;;;;;6.93;3.75;;;12.00;95.80;;;;;;5093650;28;20028;-59
2022/11/05 13:05:21;;;;;;;7.60;3.83;;;12.00;95.90;;;;;;5088650;28;20341;-59
2022/11/05 13:08:08;;;;;;;6.28;3.88;;;12.00;95.80;;;;;;5072717;28;20035;-59
2022/11/05 13:10:39;;;;;;;8.50;3.92;;;12.10;96.10;;;;;;5073088;28;20035;-54
2022/11/05 13:13:10;;;;;;;;;;;12.10;95.80;;;;;;5073685;28;20388;-55
2022/11/05 13:15:44;;;;;;;8.82;4.40;;;12.10;95.60;;;;;;5077119;28;20004;-60
2022/11/05 13:18:15;;;;;;;7.20;3.70;;;12.10;95.80;;;;;;5093586;28;20016;-54
2022/11/05 13:20:45;;;;;;;7.75;4.18;;;12.10;95.80;;;;;;5092886;28;20016;-57
2022/11/05 13:23:25;;;;;;;8.90;3.85;;;12.10;95.80;;;;;;5089038;28;20044;-58
2022/11/05 13:26:29;;;;;;;8.20;3.17;;;12.10;95.90;;;;;;5093421;28;20461;-57
2022/11/05 13:29:16;;;;;;;6.78;3.83;;;12.10;95.90;;;;;;5073070;28;20044;-59
2022/11/05 13:31:51;;;;;;;8.77;3.47;;;12.20;95.90;;;;;;5084393;28;20028;-60
2022/11/05 13:34:17;;;;;;;8.40;4.00;;;12.10;96.00;;;;;;5093238;28;20016;-58
2022/11/05 13:39:58;;;;;;;9.10;4.55;;;12.20;96.20;;;;;;5059097;28;20072;-57
2022/11/05 13:42:35;;;;;;;9.10;4.70;;;12.20;96.20;;;;;;5071951;28;20127;-57
2022/11/05 13:45:13;;;;;;;10.07;4.88;;;12.10;96.00;;;;;;5072890;28;20047;-59
2022/11/05 13:48:03;;;;;;;9.80;5.43;;;12.10;96.20;;;;;;5072337;28;20194;-60
2022/11/05 13:50:53;;;;;;;8.88;4.82;;;12.10;96.20;;;;;;5090561;28;20032;-54
2022/11/05 13:53:24;;;;;;;9.60;5.22;;;12.10;96.30;;;;;;5072388;28;20116;-54
2022/11/05 13:56:16;;;;;;;7.18;4.55;;;12.00;96.30;;;;;;5072840;28;20032;-56